sensor_id;sensor_type;location;lat;lon;timestamp;P1;durP1;ratioP1;P2;durP2;ratioP2
74177;SDS011;62540;48.456;-4.456;2023-07-20T00:01:13;2.75;;;2.75;;
74177;SDS011;62540;48.456;-4.456;2023-07-20T00:03:38;3.00;;;2.50;;
74177;SDS011;62540;48.456;-4.456;2023-07-20T00:06:04;3.50;;;3.25;;
74177;SDS011;62540;48.456;-4.456;2023-07-20T00:08:30;3.50;;;3.00;;
74177;SDS011;62540;48.456;-4.456;2023-07-20T00:10:55;2.00;;;2.00;;
74177;SDS011;62540;48.456;-4.456;2023-07-20T00:13:21;3.00;;;3.00;;
74177;SDS011;62540;48.456;-4.456;2023-07-20T00:15:47;2.75;;;2.75;;
74177;SDS011;62540;48.456;-4.456;2023-07-20T00:18:12;3.00;;;2.50;;
74177;SDS011;62540;48.456;-4.456;2023-07-20T00:20:38;3.25;;;3.25;;
74177;SDS011;62540;48.456;-4.456;2023-07-20T00:23:04;3.25;;;2.50;;
74177;SDS011;62540;48.456;-4.456;2023-07-20T00:25:30;2.75;;;2.75;;
74177;SDS011;62540;48.456;-4.456;2023-07-20T00:27:55;3.00;;;2.50;;
74177;SDS011;62540;48.456;-4.456;2023-07-20T00:30:21;4.75;;;3.75;;
74177;SDS011;62540;48.456;-4.456;2023-07-20T00:32:46;4.00;;;4.00;;
74177;SDS011;62540;48.456;-4.456;2023-07-20T00:35:12;3.50;;;3.00;;
74177;SDS011;62540;48.456;-4.456;2023-07-20T00:37:38;4.00;;;3.00;;
74177;SDS011;62540;48.456;-4.456;2023-07-20T00:40:04;3.75;;;3.75;;
74177;SDS011;62540;48.456;-4.456;2023-07-20T00:42:30;3.00;;;3.00;;
74177;SDS011;62540;48.456;-4.456;2023-07-20T00:44:56;2.50;;;2.50;;
74177;SDS011;62540;48.456;-4.456;2023-07-20T00:47:21;4.25;;;3.00;;
74177;SDS011;62540;48.456;-4.456;2023-07-20T00:49:47;3.00;;;3.00;;
74177;SDS011;62540;48.456;-4.456;2023-07-20T00:52:13;3.50;;;3.50;;
74177;SDS011;62540;48.456;-4.456;2023-07-20T00:54:39;2.50;;;2.50;;
74177;SDS011;62540;48.456;-4.456;2023-07-20T00:57:06;3.25;;;3.25;;
74177;SDS011;62540;48.456;-4.456;2023-07-20T00:59:33;2.00;;;2.00;;
74177;SDS011;62540;48.456;-4.456;2023-07-20T01:01:59;3.50;;;2.00;;
74177;SDS011;62540;48.456;-4.456;2023-07-20T01:04:25;3.00;;;2.00;;
74177;SDS011;62540;48.456;-4.456;2023-07-20T01:07:03;3.75;;;3.00;;
74177;SDS011;62540;48.456;-4.456;2023-07-20T01:09:45;2.00;;;2.00;;
74177;SDS011;62540;48.456;-4.456;2023-07-20T01:14:51;3.00;;;3.00;;
74177;SDS011;62540;48.456;-4.456;2023-07-20T01:17:17;5.00;;;3.50;;
74177;SDS011;62540;48.456;-4.456;2023-07-20T01:19:43;3.50;;;3.50;;
74177;SDS011;62540;48.456;-4.456;2023-07-20T01:25:21;3.00;;;2.00;;
74177;SDS011;62540;48.456;-4.456;2023-07-20T01:33:52;3.75;;;3.75;;
74177;SDS011;62540;48.456;-4.456;2023-07-20T01:36:21;3.25;;;3.25;;
74177;SDS011;62540;48.456;-4.456;2023-07-20T01:38:48;3.00;;;3.00;;
74177;SDS011;62540;48.456;-4.456;2023-07-20T01:41:14;5.00;;;5.00;;
74177;SDS011;62540;48.456;-4.456;2023-07-20T01:43:40;4.00;;;3.00;;
74177;SDS011;62540;48.456;-4.456;2023-07-20T01:46:06;4.50;;;4.50;;
74177;SDS011;62540;48.456;-4.456;2023-07-20T01:48:31;5.00;;;4.00;;
74177;SDS011;62540;48.456;-4.456;2023-07-20T01:50:57;4.00;;;2.75;;
74177;SDS011;62540;48.456;-4.456;2023-07-20T01:53:22;3.00;;;3.00;;
74177;SDS011;62540;48.456;-4.456;2023-07-20T01:55:48;3.00;;;3.00;;
74177;SDS011;62540;48.456;-4.456;2023-07-20T01:58:13;4.00;;;3.25;;
74177;SDS011;62540;48.456;-4.456;2023-07-20T02:00:38;2.75;;;2.25;;
74177;SDS011;62540;48.456;-4.456;2023-07-20T02:03:04;4.00;;;3.50;;
74177;SDS011;62540;48.456;-4.456;2023-07-20T02:05:30;4.00;;;3.00;;
74177;SDS011;62540;48.456;-4.456;2023-07-20T02:07:55;4.00;;;3.00;;
74177;SDS011;62540;48.456;-4.456;2023-07-20T02:10:20;4.00;;;4.00;;
74177;SDS011;62540;48.456;-4.456;2023-07-20T02:12:46;3.50;;;3.00;;
74177;SDS011;62540;48.456;-4.456;2023-07-20T02:15:12;5.25;;;3.25;;
74177;SDS011;62540;48.456;-4.456;2023-07-20T02:17:41;5.50;;;4.00;;
74177;SDS011;62540;48.456;-4.456;2023-07-20T02:20:07;3.00;;;3.00;;
74177;SDS011;62540;48.456;-4.456;2023-07-20T02:22:37;3.00;;;3.00;;
74177;SDS011;62540;48.456;-4.456;2023-07-20T02:25:05;5.00;;;4.00;;
74177;SDS011;62540;48.456;-4.456;2023-07-20T02:27:35;4.50;;;3.75;;
74177;SDS011;62540;48.456;-4.456;2023-07-20T02:30:01;5.00;;;4.75;;
74177;SDS011;62540;48.456;-4.456;2023-07-20T02:32:27;3.25;;;3.25;;
74177;SDS011;62540;48.456;-4.456;2023-07-20T02:34:53;3.25;;;3.00;;
74177;SDS011;62540;48.456;-4.456;2023-07-20T02:37:18;3.25;;;3.25;;
74177;SDS011;62540;48.456;-4.456;2023-07-20T02:39:44;5.00;;;3.25;;
74177;SDS011;62540;48.456;-4.456;2023-07-20T02:42:09;5.00;;;4.00;;
74177;SDS011;62540;48.456;-4.456;2023-07-20T02:44:35;5.75;;;4.75;;
74177;SDS011;62540;48.456;-4.456;2023-07-20T02:47:00;4.00;;;4.00;;
74177;SDS011;62540;48.456;-4.456;2023-07-20T02:49:26;3.25;;;3.25;;
74177;SDS011;62540;48.456;-4.456;2023-07-20T02:51:52;3.50;;;3.00;;
74177;SDS011;62540;48.456;-4.456;2023-07-20T02:54:17;4.00;;;4.00;;
74177;SDS011;62540;48.456;-4.456;2023-07-20T02:56:42;4.50;;;4.00;;
74177;SDS011;62540;48.456;-4.456;2023-07-20T02:59:08;6.00;;;4.00;;
74177;SDS011;62540;48.456;-4.456;2023-07-20T03:01:33;4.00;;;4.00;;
74177;SDS011;62540;48.456;-4.456;2023-07-20T03:03:59;3.50;;;3.50;;
74177;SDS011;62540;48.456;-4.456;2023-07-20T03:06:24;4.50;;;4.25;;
74177;SDS011;62540;48.456;-4.456;2023-07-20T03:08:50;5.00;;;4.00;;
74177;SDS011;62540;48.456;-4.456;2023-07-20T03:11:19;6.50;;;5.00;;
74177;SDS011;62540;48.456;-4.456;2023-07-20T03:13:46;5.00;;;5.00;;
74177;SDS011;62540;48.456;-4.456;2023-07-20T03:16:12;5.00;;;5.00;;
74177;SDS011;62540;48.456;-4.456;2023-07-20T03:18:40;5.75;;;4.25;;
74177;SDS011;62540;48.456;-4.456;2023-07-20T03:21:07;4.00;;;3.50;;
74177;SDS011;62540;48.456;-4.456;2023-07-20T03:23:33;5.75;;;4.75;;
74177;SDS011;62540;48.456;-4.456;2023-07-20T03:25:59;4.00;;;3.75;;
74177;SDS011;62540;48.456;-4.456;2023-07-20T03:28:25;6.00;;;5.25;;
74177;SDS011;62540;48.456;-4.456;2023-07-20T03:30:54;4.50;;;4.50;;
74177;SDS011;62540;48.456;-4.456;2023-07-20T03:33:21;5.25;;;5.25;;
74177;SDS011;62540;48.456;-4.456;2023-07-20T03:35:47;5.75;;;5.00;;
74177;SDS011;62540;48.456;-4.456;2023-07-20T03:38:13;4.50;;;4.50;;
74177;SDS011;62540;48.456;-4.456;2023-07-20T03:40:38;7.00;;;7.00;;
74177;SDS011;62540;48.456;-4.456;2023-07-20T03:43:03;5.75;;;5.00;;
74177;SDS011;62540;48.456;-4.456;2023-07-20T03:45:29;4.75;;;4.25;;
74177;SDS011;62540;48.456;-4.456;2023-07-20T03:47:54;5.00;;;4.25;;
74177;SDS011;62540;48.456;-4.456;2023-07-20T03:50:19;5.00;;;4.25;;
74177;SDS011;62540;48.456;-4.456;2023-07-20T03:52:45;7.00;;;6.25;;
74177;SDS011;62540;48.456;-4.456;2023-07-20T03:55:10;5.00;;;5.00;;
74177;SDS011;62540;48.456;-4.456;2023-07-20T03:57:36;4.50;;;3.75;;
74177;SDS011;62540;48.456;-4.456;2023-07-20T04:00:01;7.00;;;7.00;;
74177;SDS011;62540;48.456;-4.456;2023-07-20T04:02:27;3.50;;;3.00;;
74177;SDS011;62540;48.456;-4.456;2023-07-20T04:04:52;6.25;;;6.25;;
74177;SDS011;62540;48.456;-4.456;2023-07-20T04:07:18;6.00;;;5.50;;
74177;SDS011;62540;48.456;-4.456;2023-07-20T04:09:43;6.50;;;5.50;;
74177;SDS011;62540;48.456;-4.456;2023-07-20T04:12:08;4.75;;;4.75;;
74177;SDS011;62540;48.456;-4.456;2023-07-20T04:14:34;6.50;;;5.00;;
74177;SDS011;62540;48.456;-4.456;2023-07-20T04:16:59;5.00;;;5.00;;
74177;SDS011;62540;48.456;-4.456;2023-07-20T04:19:25;5.25;;;3.25;;
74177;SDS011;62540;48.456;-4.456;2023-07-20T04:21:51;5.75;;;5.00;;
74177;SDS011;62540;48.456;-4.456;2023-07-20T04:24:16;6.50;;;4.75;;
74177;SDS011;62540;48.456;-4.456;2023-07-20T04:26:41;5.25;;;3.75;;
74177;SDS011;62540;48.456;-4.456;2023-07-20T04:29:07;0.00;;;0.00;;
74177;SDS011;62540;48.456;-4.456;2023-07-20T04:31:33;6.00;;;5.25;;
74177;SDS011;62540;48.456;-4.456;2023-07-20T04:33:58;0.00;;;0.00;;
74177;SDS011;62540;48.456;-4.456;2023-07-20T04:36:23;0.00;;;0.00;;
74177;SDS011;62540;48.456;-4.456;2023-07-20T04:38:49;0.00;;;0.00;;
74177;SDS011;62540;48.456;-4.456;2023-07-20T04:41:14;0.00;;;0.00;;
74177;SDS011;62540;48.456;-4.456;2023-07-20T04:43:43;3.50;;;3.50;;
74177;SDS011;62540;48.456;-4.456;2023-07-20T04:46:09;0.00;;;0.00;;
74177;SDS011;62540;48.456;-4.456;2023-07-20T04:48:35;0.00;;;0.00;;
74177;SDS011;62540;48.456;-4.456;2023-07-20T04:51:01;0.00;;;0.00;;
74177;SDS011;62540;48.456;-4.456;2023-07-20T04:53:27;0.00;;;0.00;;
74177;SDS011;62540;48.456;-4.456;2023-07-20T04:55:52;0.00;;;0.00;;
74177;SDS011;62540;48.456;-4.456;2023-07-20T04:58:20;0.00;;;0.00;;
74177;SDS011;62540;48.456;-4.456;2023-07-20T05:00:47;0.00;;;0.00;;
74177;SDS011;62540;48.456;-4.456;2023-07-20T05:03:14;0.00;;;0.00;;
74177;SDS011;62540;48.456;-4.456;2023-07-20T05:05:39;0.00;;;0.00;;
74177;SDS011;62540;48.456;-4.456;2023-07-20T05:08:05;0.00;;;0.00;;
74177;SDS011;62540;48.456;-4.456;2023-07-20T05:10:30;0.00;;;0.00;;
74177;SDS011;62540;48.456;-4.456;2023-07-20T05:12:56;0.75;;;0.75;;
74177;SDS011;62540;48.456;-4.456;2023-07-20T05:15:21;0.00;;;0.00;;
74177;SDS011;62540;48.456;-4.456;2023-07-20T05:17:46;0.00;;;0.00;;
74177;SDS011;62540;48.456;-4.456;2023-07-20T05:20:13;0.00;;;0.00;;
74177;SDS011;62540;48.456;-4.456;2023-07-20T05:22:39;0.00;;;0.00;;
74177;SDS011;62540;48.456;-4.456;2023-07-20T05:25:08;0.00;;;0.00;;
74177;SDS011;62540;48.456;-4.456;2023-07-20T05:27:36;0.00;;;0.00;;
74177;SDS011;62540;48.456;-4.456;2023-07-20T05:30:02;0.00;;;0.00;;
74177;SDS011;62540;48.456;-4.456;2023-07-20T05:32:29;0.00;;;0.00;;
74177;SDS011;62540;48.456;-4.456;2023-07-20T05:34:54;0.00;;;0.00;;
74177;SDS011;62540;48.456;-4.456;2023-07-20T05:37:20;0.00;;;0.00;;
74177;SDS011;62540;48.456;-4.456;2023-07-20T05:39:46;0.00;;;0.00;;
74177;SDS011;62540;48.456;-4.456;2023-07-20T05:42:12;0.00;;;0.00;;
74177;SDS011;62540;48.456;-4.456;2023-07-20T05:44:37;0.00;;;0.00;;
74177;SDS011;62540;48.456;-4.456;2023-07-20T05:47:03;0.00;;;0.00;;
74177;SDS011;62540;48.456;-4.456;2023-07-20T05:49:28;0.00;;;0.00;;
74177;SDS011;62540;48.456;-4.456;2023-07-20T05:51:57;0.00;;;0.00;;
74177;SDS011;62540;48.456;-4.456;2023-07-20T05:54:25;0.00;;;0.00;;
74177;SDS011;62540;48.456;-4.456;2023-07-20T05:56:50;0.00;;;0.00;;
74177;SDS011;62540;48.456;-4.456;2023-07-20T05:59:16;0.00;;;0.00;;
74177;SDS011;62540;48.456;-4.456;2023-07-20T06:01:41;0.00;;;0.00;;
74177;SDS011;62540;48.456;-4.456;2023-07-20T06:04:08;0.00;;;0.00;;
74177;SDS011;62540;48.456;-4.456;2023-07-20T06:06:33;0.00;;;0.00;;
74177;SDS011;62540;48.456;-4.456;2023-07-20T06:08:59;0.00;;;0.00;;
74177;SDS011;62540;48.456;-4.456;2023-07-20T06:11:28;0.00;;;0.00;;
74177;SDS011;62540;48.456;-4.456;2023-07-20T06:13:54;0.00;;;0.00;;
74177;SDS011;62540;48.456;-4.456;2023-07-20T06:16:19;0.00;;;0.00;;
74177;SDS011;62540;48.456;-4.456;2023-07-20T06:18:45;0.00;;;0.00;;
74177;SDS011;62540;48.456;-4.456;2023-07-20T06:21:10;0.00;;;0.00;;
74177;SDS011;62540;48.456;-4.456;2023-07-20T06:23:36;0.00;;;0.00;;
74177;SDS011;62540;48.456;-4.456;2023-07-20T06:26:01;0.00;;;0.00;;
74177;SDS011;62540;48.456;-4.456;2023-07-20T06:28:26;0.00;;;0.00;;
74177;SDS011;62540;48.456;-4.456;2023-07-20T06:30:52;0.00;;;0.00;;
74177;SDS011;62540;48.456;-4.456;2023-07-20T06:33:17;0.00;;;0.00;;
74177;SDS011;62540;48.456;-4.456;2023-07-20T06:35:43;0.00;;;0.00;;
74177;SDS011;62540;48.456;-4.456;2023-07-20T06:38:08;0.00;;;0.00;;
74177;SDS011;62540;48.456;-4.456;2023-07-20T06:40:33;0.00;;;0.00;;
74177;SDS011;62540;48.456;-4.456;2023-07-20T06:42:59;0.00;;;0.00;;
74177;SDS011;62540;48.456;-4.456;2023-07-20T06:45:24;0.00;;;0.00;;
74177;SDS011;62540;48.456;-4.456;2023-07-20T06:47:50;0.00;;;0.00;;
74177;SDS011;62540;48.456;-4.456;2023-07-20T06:50:15;0.00;;;0.00;;
74177;SDS011;62540;48.456;-4.456;2023-07-20T06:52:41;0.00;;;0.00;;
74177;SDS011;62540;48.456;-4.456;2023-07-20T06:55:06;0.00;;;0.00;;
74177;SDS011;62540;48.456;-4.456;2023-07-20T06:57:32;0.00;;;0.00;;
74177;SDS011;62540;48.456;-4.456;2023-07-20T06:59:57;0.00;;;0.00;;
74177;SDS011;62540;48.456;-4.456;2023-07-20T07:02:23;0.00;;;0.00;;
74177;SDS011;62540;48.456;-4.456;2023-07-20T07:04:48;0.00;;;0.00;;
74177;SDS011;62540;48.456;-4.456;2023-07-20T07:07:14;0.00;;;0.00;;
74177;SDS011;62540;48.456;-4.456;2023-07-20T07:09:40;0.00;;;0.00;;
74177;SDS011;62540;48.456;-4.456;2023-07-20T07:12:05;0.00;;;0.00;;
74177;SDS011;62540;48.456;-4.456;2023-07-20T07:14:31;0.00;;;0.00;;
74177;SDS011;62540;48.456;-4.456;2023-07-20T07:16:57;0.00;;;0.00;;
74177;SDS011;62540;48.456;-4.456;2023-07-20T07:19:22;0.00;;;0.00;;
74177;SDS011;62540;48.456;-4.456;2023-07-20T07:21:47;0.00;;;0.00;;
74177;SDS011;62540;48.456;-4.456;2023-07-20T07:24:13;0.00;;;0.00;;
74177;SDS011;62540;48.456;-4.456;2023-07-20T07:26:38;0.00;;;0.00;;
74177;SDS011;62540;48.456;-4.456;2023-07-20T07:29:04;0.00;;;0.00;;
74177;SDS011;62540;48.456;-4.456;2023-07-20T07:31:29;0.00;;;0.00;;
74177;SDS011;62540;48.456;-4.456;2023-07-20T07:33:55;0.00;;;0.00;;
74177;SDS011;62540;48.456;-4.456;2023-07-20T07:36:21;0.00;;;0.00;;
74177;SDS011;62540;48.456;-4.456;2023-07-20T07:38:49;0.00;;;0.00;;
74177;SDS011;62540;48.456;-4.456;2023-07-20T07:41:14;0.00;;;0.00;;
74177;SDS011;62540;48.456;-4.456;2023-07-20T07:43:40;0.00;;;0.00;;
74177;SDS011;62540;48.456;-4.456;2023-07-20T07:46:05;0.00;;;0.00;;
74177;SDS011;62540;48.456;-4.456;2023-07-20T07:48:31;0.00;;;0.00;;
74177;SDS011;62540;48.456;-4.456;2023-07-20T07:50:56;0.00;;;0.00;;
74177;SDS011;62540;48.456;-4.456;2023-07-20T07:53:21;0.00;;;0.00;;
74177;SDS011;62540;48.456;-4.456;2023-07-20T07:55:47;0.00;;;0.00;;
74177;SDS011;62540;48.456;-4.456;2023-07-20T07:58:13;0.00;;;0.00;;
74177;SDS011;62540;48.456;-4.456;2023-07-20T08:00:39;0.00;;;0.00;;
74177;SDS011;62540;48.456;-4.456;2023-07-20T08:03:06;0.00;;;0.00;;
74177;SDS011;62540;48.456;-4.456;2023-07-20T08:05:31;0.00;;;0.00;;
74177;SDS011;62540;48.456;-4.456;2023-07-20T08:07:57;0.00;;;0.00;;
74177;SDS011;62540;48.456;-4.456;2023-07-20T08:10:22;0.00;;;0.00;;
74177;SDS011;62540;48.456;-4.456;2023-07-20T08:12:48;0.00;;;0.00;;
74177;SDS011;62540;48.456;-4.456;2023-07-20T08:15:13;0.00;;;0.00;;
74177;SDS011;62540;48.456;-4.456;2023-07-20T08:17:40;0.00;;;0.00;;
74177;SDS011;62540;48.456;-4.456;2023-07-20T08:20:07;0.00;;;0.00;;
74177;SDS011;62540;48.456;-4.456;2023-07-20T08:22:34;0.00;;;0.00;;
74177;SDS011;62540;48.456;-4.456;2023-07-20T08:25:00;0.00;;;0.00;;
74177;SDS011;62540;48.456;-4.456;2023-07-20T08:27:25;0.00;;;0.00;;
74177;SDS011;62540;48.456;-4.456;2023-07-20T08:29:51;0.00;;;0.00;;
74177;SDS011;62540;48.456;-4.456;2023-07-20T08:32:16;0.00;;;0.00;;
74177;SDS011;62540;48.456;-4.456;2023-07-20T08:34:41;0.00;;;0.00;;
74177;SDS011;62540;48.456;-4.456;2023-07-20T08:37:07;0.00;;;0.00;;
74177;SDS011;62540;48.456;-4.456;2023-07-20T08:39:34;0.00;;;0.00;;
74177;SDS011;62540;48.456;-4.456;2023-07-20T08:42:00;0.00;;;0.00;;
74177;SDS011;62540;48.456;-4.456;2023-07-20T08:44:29;0.00;;;0.00;;
74177;SDS011;62540;48.456;-4.456;2023-07-20T08:46:57;0.00;;;0.00;;
74177;SDS011;62540;48.456;-4.456;2023-07-20T08:49:24;0.00;;;0.00;;
74177;SDS011;62540;48.456;-4.456;2023-07-20T08:51:51;0.00;;;0.00;;
74177;SDS011;62540;48.456;-4.456;2023-07-20T08:54:17;0.00;;;0.00;;
74177;SDS011;62540;48.456;-4.456;2023-07-20T08:56:43;0.00;;;0.00;;
74177;SDS011;62540;48.456;-4.456;2023-07-20T08:59:10;0.00;;;0.00;;
74177;SDS011;62540;48.456;-4.456;2023-07-20T09:01:38;0.00;;;0.00;;
74177;SDS011;62540;48.456;-4.456;2023-07-20T09:04:04;0.00;;;0.00;;
74177;SDS011;62540;48.456;-4.456;2023-07-20T09:06:30;0.00;;;0.00;;
74177;SDS011;62540;48.456;-4.456;2023-07-20T09:08:55;0.00;;;0.00;;
74177;SDS011;62540;48.456;-4.456;2023-07-20T09:11:21;0.00;;;0.00;;
74177;SDS011;62540;48.456;-4.456;2023-07-20T09:13:46;0.00;;;0.00;;
74177;SDS011;62540;48.456;-4.456;2023-07-20T09:16:15;0.00;;;0.00;;
74177;SDS011;62540;48.456;-4.456;2023-07-20T09:18:41;0.00;;;0.00;;
74177;SDS011;62540;48.456;-4.456;2023-07-20T09:21:06;0.00;;;0.00;;
74177;SDS011;62540;48.456;-4.456;2023-07-20T09:23:35;0.00;;;0.00;;
74177;SDS011;62540;48.456;-4.456;2023-07-20T09:26:11;0.00;;;0.00;;
74177;SDS011;62540;48.456;-4.456;2023-07-20T09:28:53;0.00;;;0.00;;
74177;SDS011;62540;48.456;-4.456;2023-07-20T09:31:19;0.00;;;0.00;;
74177;SDS011;62540;48.456;-4.456;2023-07-20T09:33:46;0.00;;;0.00;;
74177;SDS011;62540;48.456;-4.456;2023-07-20T09:36:13;0.00;;;0.00;;
74177;SDS011;62540;48.456;-4.456;2023-07-20T09:38:42;0.00;;;0.00;;
74177;SDS011;62540;48.456;-4.456;2023-07-20T09:41:13;0.00;;;0.00;;
74177;SDS011;62540;48.456;-4.456;2023-07-20T09:43:42;0.00;;;0.00;;
74177;SDS011;62540;48.456;-4.456;2023-07-20T09:46:07;0.00;;;0.00;;
74177;SDS011;62540;48.456;-4.456;2023-07-20T09:48:33;0.00;;;0.00;;
74177;SDS011;62540;48.456;-4.456;2023-07-20T09:50:58;0.00;;;0.00;;
74177;SDS011;62540;48.456;-4.456;2023-07-20T09:53:25;0.00;;;0.00;;
74177;SDS011;62540;48.456;-4.456;2023-07-20T09:55:52;0.00;;;0.00;;
74177;SDS011;62540;48.456;-4.456;2023-07-20T09:58:17;0.00;;;0.00;;
74177;SDS011;62540;48.456;-4.456;2023-07-20T10:00:44;0.00;;;0.00;;
74177;SDS011;62540;48.456;-4.456;2023-07-20T10:03:13;0.00;;;0.00;;
74177;SDS011;62540;48.456;-4.456;2023-07-20T10:05:43;0.00;;;0.00;;
74177;SDS011;62540;48.456;-4.456;2023-07-20T10:08:11;0.00;;;0.00;;
74177;SDS011;62540;48.456;-4.456;2023-07-20T10:10:38;0.00;;;0.00;;
74177;SDS011;62540;48.456;-4.456;2023-07-20T10:13:07;0.00;;;0.00;;
74177;SDS011;62540;48.456;-4.456;2023-07-20T10:15:37;0.00;;;0.00;;
74177;SDS011;62540;48.456;-4.456;2023-07-20T10:18:14;0.00;;;0.00;;
74177;SDS011;62540;48.456;-4.456;2023-07-20T10:20:42;0.00;;;0.00;;
74177;SDS011;62540;48.456;-4.456;2023-07-20T10:23:08;0.00;;;0.00;;
74177;SDS011;62540;48.456;-4.456;2023-07-20T10:25:35;0.00;;;0.00;;
74177;SDS011;62540;48.456;-4.456;2023-07-20T10:28:05;0.00;;;0.00;;
74177;SDS011;62540;48.456;-4.456;2023-07-20T10:30:36;0.00;;;0.00;;
74177;SDS011;62540;48.456;-4.456;2023-07-20T10:33:03;0.00;;;0.00;;
74177;SDS011;62540;48.456;-4.456;2023-07-20T10:35:29;0.00;;;0.00;;
74177;SDS011;62540;48.456;-4.456;2023-07-20T10:38:02;0.00;;;0.00;;
74177;SDS011;62540;48.456;-4.456;2023-07-20T10:40:34;0.00;;;0.00;;
74177;SDS011;62540;48.456;-4.456;2023-07-20T10:43:04;0.00;;;0.00;;
74177;SDS011;62540;48.456;-4.456;2023-07-20T10:48:14;0.00;;;0.00;;
74177;SDS011;62540;48.456;-4.456;2023-07-20T10:53:42;0.00;;;0.00;;
74177;SDS011;62540;48.456;-4.456;2023-07-20T10:56:14;0.00;;;0.00;;
74177;SDS011;62540;48.456;-4.456;2023-07-20T10:58:44;0.00;;;0.00;;
74177;SDS011;62540;48.456;-4.456;2023-07-20T11:01:12;0.00;;;0.00;;
74177;SDS011;62540;48.456;-4.456;2023-07-20T11:03:40;0.00;;;0.00;;
74177;SDS011;62540;48.456;-4.456;2023-07-20T11:06:48;0.00;;;0.00;;
74177;SDS011;62540;48.456;-4.456;2023-07-20T11:11:30;0.00;;;0.00;;
74177;SDS011;62540;48.456;-4.456;2023-07-20T11:13:58;0.00;;;0.00;;
74177;SDS011;62540;48.456;-4.456;2023-07-20T11:18:59;0.00;;;0.00;;
74177;SDS011;62540;48.456;-4.456;2023-07-20T11:21:24;0.00;;;0.00;;
74177;SDS011;62540;48.456;-4.456;2023-07-20T11:23:50;0.00;;;0.00;;
74177;SDS011;62540;48.456;-4.456;2023-07-20T11:26:17;0.00;;;0.00;;
74177;SDS011;62540;48.456;-4.456;2023-07-20T11:28:47;0.00;;;0.00;;
74177;SDS011;62540;48.456;-4.456;2023-07-20T11:31:14;0.00;;;0.00;;
74177;SDS011;62540;48.456;-4.456;2023-07-20T11:33:41;0.00;;;0.00;;
74177;SDS011;62540;48.456;-4.456;2023-07-20T11:36:08;0.00;;;0.00;;
74177;SDS011;62540;48.456;-4.456;2023-07-20T11:38:33;0.00;;;0.00;;
74177;SDS011;62540;48.456;-4.456;2023-07-20T11:40:59;0.00;;;0.00;;
74177;SDS011;62540;48.456;-4.456;2023-07-20T11:43:24;0.00;;;0.00;;
74177;SDS011;62540;48.456;-4.456;2023-07-20T11:45:51;0.00;;;0.00;;
74177;SDS011;62540;48.456;-4.456;2023-07-20T11:48:16;0.00;;;0.00;;
74177;SDS011;62540;48.456;-4.456;2023-07-20T11:50:42;0.00;;;0.00;;
74177;SDS011;62540;48.456;-4.456;2023-07-20T11:53:08;0.00;;;0.00;;
74177;SDS011;62540;48.456;-4.456;2023-07-20T11:55:34;0.00;;;0.00;;
74177;SDS011;62540;48.456;-4.456;2023-07-20T11:58:03;0.00;;;0.00;;
74177;SDS011;62540;48.456;-4.456;2023-07-20T12:00:35;0.00;;;0.00;;
74177;SDS011;62540;48.456;-4.456;2023-07-20T12:03:04;0.00;;;0.00;;
74177;SDS011;62540;48.456;-4.456;2023-07-20T12:05:32;0.00;;;0.00;;
74177;SDS011;62540;48.456;-4.456;2023-07-20T12:07:57;0.00;;;0.00;;
74177;SDS011;62540;48.456;-4.456;2023-07-20T12:10:26;0.00;;;0.00;;
74177;SDS011;62540;48.456;-4.456;2023-07-20T12:13:00;0.00;;;0.00;;
74177;SDS011;62540;48.456;-4.456;2023-07-20T12:15:28;0.00;;;0.00;;
74177;SDS011;62540;48.456;-4.456;2023-07-20T12:18:01;0.00;;;0.00;;
74177;SDS011;62540;48.456;-4.456;2023-07-20T12:20:30;0.00;;;0.00;;
74177;SDS011;62540;48.456;-4.456;2023-07-20T12:28:12;0.00;;;0.00;;
74177;SDS011;62540;48.456;-4.456;2023-07-20T12:30:39;0.00;;;0.00;;
74177;SDS011;62540;48.456;-4.456;2023-07-20T12:33:05;0.00;;;0.00;;
74177;SDS011;62540;48.456;-4.456;2023-07-20T12:35:31;0.00;;;0.00;;
74177;SDS011;62540;48.456;-4.456;2023-07-20T12:37:57;0.00;;;0.00;;
74177;SDS011;62540;48.456;-4.456;2023-07-20T12:40:23;0.00;;;0.00;;
74177;SDS011;62540;48.456;-4.456;2023-07-20T12:42:49;0.00;;;0.00;;
74177;SDS011;62540;48.456;-4.456;2023-07-20T12:45:15;0.00;;;0.00;;
74177;SDS011;62540;48.456;-4.456;2023-07-20T12:47:40;0.00;;;0.00;;
74177;SDS011;62540;48.456;-4.456;2023-07-20T12:50:08;0.00;;;0.00;;
74177;SDS011;62540;48.456;-4.456;2023-07-20T12:52:37;0.00;;;0.00;;
74177;SDS011;62540;48.456;-4.456;2023-07-20T12:55:07;0.00;;;0.00;;
74177;SDS011;62540;48.456;-4.456;2023-07-20T12:57:34;0.00;;;0.00;;
74177;SDS011;62540;48.456;-4.456;2023-07-20T13:00:01;0.00;;;0.00;;
74177;SDS011;62540;48.456;-4.456;2023-07-20T13:02:32;0.00;;;0.00;;
74177;SDS011;62540;48.456;-4.456;2023-07-20T13:04:58;0.00;;;0.00;;
74177;SDS011;62540;48.456;-4.456;2023-07-20T13:07:30;0.00;;;0.00;;
74177;SDS011;62540;48.456;-4.456;2023-07-20T13:09:56;0.00;;;0.00;;
74177;SDS011;62540;48.456;-4.456;2023-07-20T13:12:22;0.00;;;0.00;;
74177;SDS011;62540;48.456;-4.456;2023-07-20T13:14:48;0.00;;;0.00;;
74177;SDS011;62540;48.456;-4.456;2023-07-20T13:17:13;0.00;;;0.00;;
74177;SDS011;62540;48.456;-4.456;2023-07-20T13:19:38;0.00;;;0.00;;
74177;SDS011;62540;48.456;-4.456;2023-07-20T13:22:04;0.00;;;0.00;;
74177;SDS011;62540;48.456;-4.456;2023-07-20T13:24:29;0.00;;;0.00;;
74177;SDS011;62540;48.456;-4.456;2023-07-20T13:26:55;0.00;;;0.00;;
74177;SDS011;62540;48.456;-4.456;2023-07-20T13:29:20;0.00;;;0.00;;
74177;SDS011;62540;48.456;-4.456;2023-07-20T13:31:46;0.00;;;0.00;;
74177;SDS011;62540;48.456;-4.456;2023-07-20T13:34:11;0.00;;;0.00;;
74177;SDS011;62540;48.456;-4.456;2023-07-20T13:36:36;0.00;;;0.00;;
74177;SDS011;62540;48.456;-4.456;2023-07-20T13:39:02;0.00;;;0.00;;
74177;SDS011;62540;48.456;-4.456;2023-07-20T13:41:29;0.00;;;0.00;;
74177;SDS011;62540;48.456;-4.456;2023-07-20T13:43:57;0.00;;;0.00;;
74177;SDS011;62540;48.456;-4.456;2023-07-20T13:46:22;0.00;;;0.00;;
74177;SDS011;62540;48.456;-4.456;2023-07-20T13:48:48;0.00;;;0.00;;
74177;SDS011;62540;48.456;-4.456;2023-07-20T13:51:13;0.00;;;0.00;;
74177;SDS011;62540;48.456;-4.456;2023-07-20T13:53:39;0.00;;;0.00;;
74177;SDS011;62540;48.456;-4.456;2023-07-20T13:56:05;0.00;;;0.00;;
74177;SDS011;62540;48.456;-4.456;2023-07-20T13:58:32;0.00;;;0.00;;
74177;SDS011;62540;48.456;-4.456;2023-07-20T14:00:57;0.00;;;0.00;;
74177;SDS011;62540;48.456;-4.456;2023-07-20T14:03:23;0.00;;;0.00;;
74177;SDS011;62540;48.456;-4.456;2023-07-20T14:05:49;0.00;;;0.00;;
74177;SDS011;62540;48.456;-4.456;2023-07-20T14:08:15;0.00;;;0.00;;
74177;SDS011;62540;48.456;-4.456;2023-07-20T14:10:40;0.00;;;0.00;;
74177;SDS011;62540;48.456;-4.456;2023-07-20T14:13:06;0.00;;;0.00;;
74177;SDS011;62540;48.456;-4.456;2023-07-20T14:15:31;0.00;;;0.00;;
74177;SDS011;62540;48.456;-4.456;2023-07-20T14:17:56;0.00;;;0.00;;
74177;SDS011;62540;48.456;-4.456;2023-07-20T14:20:22;0.00;;;0.00;;
74177;SDS011;62540;48.456;-4.456;2023-07-20T14:22:47;0.00;;;0.00;;
74177;SDS011;62540;48.456;-4.456;2023-07-20T14:25:13;0.00;;;0.00;;
74177;SDS011;62540;48.456;-4.456;2023-07-20T14:27:38;0.00;;;0.00;;
74177;SDS011;62540;48.456;-4.456;2023-07-20T14:30:04;0.00;;;0.00;;
74177;SDS011;62540;48.456;-4.456;2023-07-20T14:32:30;0.00;;;0.00;;
74177;SDS011;62540;48.456;-4.456;2023-07-20T14:34:56;0.00;;;0.00;;
74177;SDS011;62540;48.456;-4.456;2023-07-20T14:37:21;0.00;;;0.00;;
74177;SDS011;62540;48.456;-4.456;2023-07-20T14:39:47;0.00;;;0.00;;
74177;SDS011;62540;48.456;-4.456;2023-07-20T14:42:13;0.00;;;0.00;;
74177;SDS011;62540;48.456;-4.456;2023-07-20T14:44:38;0.00;;;0.00;;
74177;SDS011;62540;48.456;-4.456;2023-07-20T14:47:04;0.00;;;0.00;;
74177;SDS011;62540;48.456;-4.456;2023-07-20T14:49:29;0.00;;;0.00;;
74177;SDS011;62540;48.456;-4.456;2023-07-20T14:51:55;0.00;;;0.00;;
74177;SDS011;62540;48.456;-4.456;2023-07-20T14:54:20;0.00;;;0.00;;
74177;SDS011;62540;48.456;-4.456;2023-07-20T14:56:49;0.00;;;0.00;;